Latest Coastal Weather Observations for Geraldton Airport

IDW60701

Issued at 11:42 pm WST Monday 25 May 2015 (issued every 10 minutes, with the page automatically refreshed every 10 minutes)

About coastal observations | Map of coastal stations | Coastal observations for WA | Marine services | Other Formats
Station Details ID: 008315 Name: GERALDTON AIRPORT Lat: -28.80 Lon: 114.70 Height: 29.7 m
Data from the previous 72 hours. | See also: Recent months at Geraldton Airport
Date/Time
WST
Temp

°C
Wind Pressure Rain
since 9am
mm
Weather Cloud Vis
km
Sea
Height
m
Swell
Dir
 
Speed
knots
Gust
knots
hPa Trend Height
m
Period
s
Dir
25/11:30pm 11.7 SE 7 7 1022.0 - - - - 10 - - - -
25/11:00pm 12.5 SSE 7 8 1022.0 - - - - 10 - - - -
25/10:30pm 12.3 SSE 7 8 1022.1 - - - - 10 - - - -
25/10:00pm 13.2 SE 7 8 1022.2 - - - - 10 - - - -
25/09:30pm 13.5 SE 7 8 1022.1 - - - - 10 - - - -
25/09:00pm 13.5 SE 5 7 1021.9 - - - - 10 - - - -
25/08:30pm 14.2 SE 6 6 1021.9 - - - - 10 - - - -
25/08:00pm 14.3 SSE 7 8 1021.7 - - - - 10 - - - -
25/07:30pm 14.7 SSE 7 8 1021.3 - - - - 10 - - - -
25/07:00pm 15.6 SSE 7 8 1021.1 - - - - 10 - - - -
25/06:30pm 16.6 SSE 6 6 1021.0 - - - - 10 - - - -
25/06:00pm 17.7 S 7 8 1020.6 - - - - 10 - - - -
25/05:30pm 19.0 S 9 12 1020.0 - 0.0 - - 10 - - - -
25/05:00pm 20.1 S 13 16 1019.5 - 0.0 - Mostly clear 10 - - - -
25/04:30pm 20.4 S 8 14 1019.5 - 0.0 - Mostly clear 10 - - - -
25/04:00pm 21.4 S 10 - 1019.4 - 0.0 - Mostly clear 10 - - - -
25/03:30pm 22.2 SSW 10 15 1019.1 - 0.0 - Mostly clear 10 - - - -
25/03:00pm 22.2 SSW 14 17 1019.1 R 0.0 Fine Mostly clear 30 - - - -
25/02:30pm 22.7 SSW 13 16 1019.0 - 0.0 - Mostly clear 10 - - - -
25/02:00pm 23.1 S 12 15 1019.1 - 0.0 - Mostly clear 10 - - - -
25/01:30pm 23.5 SSW 12 15 1019.2 - 0.0 - Mostly clear 10 - - - -
25/01:00pm 23.7 SSW 11 16 1019.4 - 0.0 - Mostly clear 10 - - - -
25/12:30pm 23.1 SSE 7 12 1019.6 - 0.0 - - 10 - - - -
25/12:00pm 23.2 S 9 15 1019.9 F 0.0 Fine Mostly clear 30 - - - -
25/11:30am 23.1 SSE 9 14 1020.4 - 0.0 - - 10 - - - -
25/11:00am 22.9 SE 10 14 1020.9 - 0.0 - - 10 - - - -
25/10:30am 21.6 SE 11 14 1021.2 - 0.0 - - 10 - - - -
25/10:00am 19.6 SE 7 9 1021.5 - 0.0 - - 10 - - - -
25/09:30am 17.4 E 5 5 1021.5 - 0.0 - - 10 - - - -
25/09:00am 14.7 ENE 4 4 1021.4 S 0.0 Fine Mostly clear 30 - - - -
25/08:00am 11.0 E 3 4 1021.2 - 0.0 - - 10 - - - -
25/07:30am 9.5 ESE 2 4 1021.0 - 0.0 - - 10 - - - -
25/07:00am 8.4 CALM 0 0 1020.8 - 0.0 - - 10 - - - -
25/06:30am 7.7 ENE 3 4 1020.4 - 0.0 - - 10 - - - -
25/06:00am 8.4 NE 3 5 1020.2 F 0.0 Fine Clear 30 - - - -
25/05:30am 8.6 NE 3 5 1020.1 - 0.0 - - 10 - - - -
25/05:00am 9.0 CALM 0 0 1020.0 - 0.0 - - 10 - - - -
25/04:30am 8.6 ENE 3 4 1020.2 - 0.0 - - 10 - - - -
25/04:00am 9.4 SE 2 3 1020.3 - 0.0 - - 10 - - - -
25/03:30am 9.3 ESE 4 4 1020.2 - 0.0 - - 10 - - - -
25/03:00am 9.1 E 4 5 1020.2 - 0.0 - - 10 - - - -
25/02:30am 9.3 SE 6 7 1020.3 - 0.0 - - 10 - - - -
25/02:00am 9.9 SSE 6 6 1020.5 - 0.0 - - 10 - - - -
25/01:30am 10.6 SSE 6 7 1020.6 - 0.0 - - 10 - - - -
25/01:00am 11.6 SSE 8 9 1020.5 - 0.0 - - 10 - - - -
25/12:30am 11.2 SSE 6 7 1020.5 - 0.0 - - 10 - - - -
25/12:00am 10.8 ESE 5 7 1020.6 - 0.0 - - 10 - - - -
 
Date/Time
WST
Temp

°C
Wind Pressure Rain
since 9am
mm
Weather Cloud Vis
km
Sea
Height
m
Swell
Dir
 
Speed
knots
Gust
knots
hPa Trend Height
m
Period
s
Dir
24/11:30pm 12.2 SE 7 9 1020.6 - 0.0 - - 10 - - - -
24/11:00pm 12.9 SE 8 9 1020.5 - 0.0 - - 10 - - - -
24/10:30pm 13.1 SSE 8 9 1020.6 - 0.0 - - 10 - - - -
24/10:00pm 12.5 SSE 6 7 1020.5 - 0.0 - - 10 - - - -
24/09:30pm 13.0 SE 5 6 1020.3 - 0.0 - - 10 - - - -
24/09:00pm 14.2 SE 6 7 1020.2 - 0.0 - - 10 - - - -
24/08:30pm 14.3 SSE 6 6 1020.0 - 0.0 - - 10 - - - -
24/08:00pm 15.0 SSE 6 7 1019.9 - 0.0 - - 10 - - - -
24/07:30pm 15.5 SE 7 8 1019.9 - 0.0 - - 10 - - - -
24/07:00pm 16.0 SSE 7 8 1019.8 - 0.0 - - 10 - - - -
24/06:30pm 17.0 SSE 7 8 1019.6 - 0.0 - - 10 - - - -
24/06:00pm 18.2 SSE 9 11 1019.0 - 0.0 - - 10 - - - -
24/05:30pm 19.0 S 11 14 1018.6 - 0.0 - - 10 - - - -
24/05:00pm 20.0 S 12 17 1018.4 - 0.0 - - 10 - - - -
24/04:30pm 20.6 S 14 18 1018.2 - 0.0 - - 10 - - - -
24/04:00pm 21.4 S 13 17 1018.2 - 0.0 - Mostly clear 10 - - - -
24/03:30pm 21.9 SSW 14 16 1018.1 - 0.0 - - 10 - - - -
24/03:00pm 22.5 SSW 13 15 1018.0 R 0.0 Fine Mostly clear 30 - - - -
24/02:30pm 22.5 SSW 12 15 1017.9 - 0.0 - - 10 - - - -
24/02:00pm 22.0 SW 13 16 1017.9 - 0.0 - - 10 - - - -
24/01:30pm 22.3 S 7 11 1018.2 - 0.0 - Mostly clear 10 - - - -
24/01:00pm 22.3 S 6 11 1018.6 - 0.0 - Mostly clear 10 - - - -
24/12:30pm 23.1 ESE 7 12 1019.1 - 0.0 - Mostly clear 10 - - - -
24/12:00pm 22.6 SE 9 13 1019.5 F 0.0 Fine Mostly clear 30 - - - -
24/11:30am 22.3 E 9 12 1020.0 - 0.0 - Mostly clear 10 - - - -
24/11:00am 21.6 SE 4 9 1020.3 - 0.0 - Mostly clear 10 - - - -
24/10:30am 20.4 E 6 8 1020.6 - 0.0 - - 10 - - - -
24/10:00am 19.7 E 5 9 1020.8 - 0.0 - - 10 - - - -
24/09:30am 17.8 ESE 6 9 1020.7 - 0.0 - - 10 - - - -
24/09:00am 16.6 CALM 0 5 1020.7 R 0.0 Fine Mostly clear 30 - - - -
24/08:30am 14.7 NE 5 7 1020.5 - 0.0 - Mostly clear 10 - - - -
24/08:00am 13.2 NE 5 6 1020.3 - 0.0 - Mostly clear 10 - - - -
24/07:30am 11.1 NNE 3 4 1020.2 - 0.0 - Mostly clear 10 - - - -
24/07:00am 10.4 NNE 5 7 1019.9 - 0.0 - Mostly clear 10 - - - -
24/06:30am 10.7 NNE 5 7 1019.8 - 0.0 - Mostly clear 10 - - - -
24/06:00am 10.5 NE 6 7 1019.7 F 0.0 Fine Mostly clear 30 - - - -
24/05:30am 10.4 NE 5 6 1019.7 - 0.0 - - 10 - - - -
24/05:00am 10.9 NE 5 7 1019.6 - 0.0 - - 10 - - - -
24/04:30am 10.5 NE 6 7 1019.6 - 0.0 - - 10 - - - -
24/04:00am 10.8 NE 4 5 1019.4 - 0.0 - - 10 - - - -
24/03:30am 11.1 NE 6 7 1019.4 - 0.0 - - 10 - - - -
24/03:00am 11.2 NE 7 8 1019.5 - 0.0 - - 10 - - - -
24/02:30am 11.3 NNE 8 9 1019.5 - 0.0 - - 10 - - - -
24/02:00am 11.3 NNE 6 7 1019.5 - 0.0 - - 10 - - - -
24/01:30am 11.5 NNE 7 8 1019.5 - 0.0 - - 10 - - - -
24/01:00am 12.1 ENE 5 7 1019.7 - 0.0 - Partly cloudy 10 - - - -
24/12:30am 11.2 SSW 5 6 1019.8 - 0.0 - Partly cloudy 10 - - - -
24/12:00am 11.7 CALM 0 0 1019.7 - 0.0 - - 10 - - - -
 
Date/Time
WST
Temp

°C
Wind Pressure Rain
since 9am
mm
Weather Cloud Vis
km
Sea
Height
m
Swell
Dir
 
Speed
knots
Gust
knots
hPa Trend Height
m
Period
s
Dir
23/11:30pm 11.9 W 1 3 1019.9 - 0.0 - - 10 - - - -
23/11:00pm 12.2 N 2 3 1019.8 - 0.0 - - 10 - - - -
23/10:30pm 12.1 S 3 4 1019.9 - 0.0 - - 10 - - - -
23/10:00pm 13.2 ESE 3 4 1019.8 - 0.0 - - 10 - - - -
23/09:30pm 12.7 E 4 5 1019.9 - 0.0 - - 10 - - - -
23/09:00pm 13.0 E 5 5 1019.9 - 0.0 - - 10 - - - -
23/08:30pm 14.1 E 5 7 1019.9 - 0.0 - - 10 - - - -
23/08:00pm 15.6 ESE 5 7 1019.7 - 0.0 - - 10 - - - -
23/07:30pm 15.3 SSW 7 7 1019.5 - 0.0 - - 10 - - - -
23/07:00pm 15.3 SSW 6 8 1019.3 - 0.0 - - 10 - - - -
23/06:30pm 15.9 S 8 8 1019.1 - 0.0 - - 10 - - - -
23/06:00pm 17.1 SSW 7 8 1019.0 - 0.0 - - 10 - - - -
23/05:30pm 18.5 S 7 8 1018.9 - 0.0 - - 10 - - - -
23/05:00pm 20.0 S 9 12 1018.7 - 0.0 - - 10 - - - -
23/04:30pm 20.6 S 13 15 1018.6 - 0.0 - - 10 - - - -
23/04:00pm 21.2 S 12 16 1018.4 - 0.0 - - 10 - - - -
23/03:30pm 21.8 S 11 15 1018.3 - 0.0 - - 10 - - - -
23/03:00pm 21.7 S 12 16 1018.2 R 0.0 Fine Partly cloudy 30 - - - -
23/02:30pm 21.7 S 11 16 1018.2 - 0.0 - Mostly clear 10 - - - -
23/02:00pm 22.4 S 11 16 1018.2 - 0.0 - Mostly clear 10 - - - -
23/01:30pm 21.8 S 12 16 1018.5 - 0.0 - Mostly clear 10 - - - -
23/01:00pm 22.1 S 13 17 1018.6 - 0.0 - Mostly clear 10 - - - -
23/12:30pm 22.4 S 11 16 1018.9 - 0.0 - Mostly clear 10 - - - -
23/12:00pm 22.2 S 12 17 1019.3 R 0.0 Fine Partly cloudy 30 - - - -
23/11:30am 22.1 S 11 15 1019.5 - 0.0 - Mostly clear 10 - - - -
23/11:00am 21.4 S 10 15 1019.7 - 0.0 - Mostly clear 10 - - - -
23/10:30am 21.3 SSE 11 13 1019.8 - 0.0 - Mostly clear 10 - - - -
23/10:00am 20.0 SSE 8 12 1019.9 - 0.0 - Mostly clear 10 - - - -
23/09:30am 18.4 SE 5 8 1019.9 - 0.0 - Mostly clear 10 - - - -
23/09:00am 16.3 NE 4 5 1019.8 R 0.0 Fine Mostly clear 30 - - - -
23/08:30am 14.0 NE 5 6 1019.4 - 0.0 - Mostly clear 10 - - - -
23/08:00am 12.2 NNE 5 6 1019.2 - 0.0 - Mostly clear 10 - - - -
23/07:30am 10.3 NE 7 8 1018.9 - 0.0 - Mostly clear 10 - - - -
23/07:00am 9.3 NE 6 7 1018.6 - 0.0 - Mostly clear 10 - - - -
23/06:30am 9.5 NNE 5 6 1018.4 - 0.0 - Mostly clear 10 - - - -
23/06:00am 9.3 NE 4 5 1018.1 R 0.0 Fine Clear 30 - - - -
23/05:30am 9.9 NE 5 5 1017.9 - 0.0 - - 10 - - - -
23/05:00am 9.7 NNE 4 5 1017.7 - 0.0 - - 10 - - - -
23/04:30am 10.0 NNE 4 5 1017.6 - 0.0 - - 10 - - - -
23/04:00am 10.3 ENE 4 5 1017.5 - 0.0 - - 10 - - - -
23/03:30am 10.5 NE 5 5 1017.5 - 0.0 - - 10 - - - -
23/03:00am 10.8 NE 5 5 1017.4 - 0.0 - - 10 - - - -
23/02:30am 10.7 NE 6 6 1017.6 - 0.0 - - 10 - - - -
23/02:00am 11.0 NE 6 7 1017.5 - 0.0 - - 10 - - - -
23/01:30am 11.3 NE 5 5 1017.5 - 0.0 - - 10 - - - -
23/01:00am 11.1 NNE 5 6 1017.5 - 0.0 - - 10 - - - -
23/12:30am 11.2 NNE 6 6 1017.4 - 0.0 - - 10 - - - -
23/12:00am 11.3 NNE 4 5 1017.3 - 0.0 - - 10 - - - -

Other Formats:

Comma delimited format used in spreadsheet applications
http://www.bom.gov.au/fwo/IDW60701/IDW60701.94403.axf

JavaScript Object Notation format (JSON) in row-major order
http://www.bom.gov.au/fwo/IDW60701/IDW60701.94403.json